createdAt,value
2022-09-17T00:01:33.409Z,1.63
2022-09-17T00:04:04.631Z,1.60
2022-09-17T00:06:35.706Z,1.35
2022-09-17T00:09:06.133Z,1.40
2022-09-17T00:11:37.716Z,0.98
2022-09-17T00:14:07.209Z,0.90
2022-09-17T00:16:41.380Z,1.13
2022-09-17T00:19:14.410Z,1.30
2022-09-17T00:21:42.706Z,1.40
2022-09-17T00:24:12.427Z,1.33
2022-09-17T00:26:40.935Z,1.10
2022-09-17T00:29:09.787Z,1.50
2022-09-17T00:31:38.311Z,1.10
2022-09-17T00:34:06.305Z,1.13
2022-09-17T00:36:38.965Z,1.10
2022-09-17T00:39:09.501Z,1.30
2022-09-17T00:41:39.020Z,1.52
2022-09-17T00:44:44.401Z,1.23
2022-09-17T00:47:32.039Z,1.25
2022-09-17T00:50:14.169Z,1.25
2022-09-17T00:52:46.733Z,1.42
2022-09-17T00:55:54.920Z,1.20
2022-09-17T00:58:23.709Z,0.90
2022-09-17T01:00:51.400Z,1.50
2022-09-17T01:03:19.959Z,1.02
2022-09-17T01:05:53.054Z,1.15
2022-09-17T01:08:35.925Z,1.00
2022-09-17T01:11:06.570Z,1.20
2022-09-17T01:14:02.184Z,1.23
2022-09-17T01:17:17.404Z,1.05
2022-09-17T01:20:12.469Z,1.13
2022-09-17T01:23:17.784Z,0.82
2022-09-17T01:26:03.082Z,0.95
2022-09-17T01:28:47.732Z,1.42
2022-09-17T01:31:18.307Z,1.45
2022-09-17T01:34:02.030Z,1.48
2022-09-17T01:36:41.664Z,1.30
2022-09-17T01:39:30.335Z,1.42
2022-09-17T01:42:16.810Z,1.50
2022-09-17T01:44:53.591Z,1.30
2022-09-17T01:50:06.320Z,1.02
2022-09-17T01:52:36.880Z,1.52
2022-09-17T01:55:13.004Z,1.33
2022-09-17T01:58:23.295Z,1.42
2022-09-17T02:00:57.658Z,1.20
2022-09-17T02:03:40.784Z,1.42
2022-09-17T02:06:17.017Z,1.27
2022-09-17T02:09:19.182Z,1.17
2022-09-17T02:11:53.262Z,0.88
2022-09-17T02:14:28.093Z,1.00
2022-09-17T02:17:07.008Z,1.10
2022-09-17T02:19:38.704Z,1.17
2022-09-17T02:22:16.475Z,1.02
2022-09-17T02:25:06.901Z,1.00
2022-09-17T02:27:43.031Z,0.88
2022-09-17T02:30:11.128Z,0.80
2022-09-17T02:32:38.903Z,1.00
2022-09-17T02:35:07.644Z,1.25
2022-09-17T02:37:35.370Z,1.10
2022-09-17T02:40:04.141Z,0.70
2022-09-17T02:43:19.237Z,1.20
2022-09-17T02:46:10.196Z,1.23
2022-09-17T02:49:04.010Z,1.00
2022-09-17T02:51:32.124Z,1.10
2022-09-17T02:54:16.843Z,0.90
2022-09-17T02:56:46.354Z,0.90
2022-09-17T02:59:29.966Z,1.23
2022-09-17T03:02:09.183Z,1.25
2022-09-17T03:04:38.400Z,1.45
2022-09-17T03:07:12.278Z,1.70
2022-09-17T03:09:41.915Z,1.80
2022-09-17T03:12:11.289Z,1.88
2022-09-17T03:14:38.966Z,2.20
2022-09-17T03:17:06.707Z,2.60
2022-09-17T03:19:34.343Z,2.70
2022-09-17T03:22:01.909Z,2.90
2022-09-17T03:24:29.820Z,3.15
2022-09-17T03:26:57.465Z,2.90
2022-09-17T03:29:25.062Z,2.92
2022-09-17T03:31:52.920Z,3.00
2022-09-17T03:34:21.319Z,3.40
2022-09-17T03:37:34.468Z,3.47
2022-09-17T03:40:03.003Z,3.33
2022-09-17T03:42:30.751Z,3.50
2022-09-17T03:44:58.466Z,3.47
2022-09-17T03:47:26.188Z,3.30
2022-09-17T03:49:53.971Z,3.10
2022-09-17T03:52:21.609Z,2.75
2022-09-17T03:54:49.383Z,3.17
2022-09-17T03:57:17.195Z,2.90
2022-09-17T03:59:44.869Z,2.88
2022-09-17T04:02:12.870Z,2.90
2022-09-17T04:04:40.763Z,3.33
2022-09-17T04:07:08.455Z,3.25
2022-09-17T04:09:36.086Z,2.78
2022-09-17T04:12:04.346Z,3.30
2022-09-17T04:14:31.917Z,3.08
2022-09-17T04:16:59.578Z,2.88
2022-09-17T04:19:27.595Z,2.85
2022-09-17T04:21:55.134Z,2.72
2022-09-17T04:24:22.701Z,2.72
2022-09-17T04:26:50.418Z,2.78
2022-09-17T04:29:18.448Z,2.60
2022-09-17T04:31:46.500Z,3.00
2022-09-17T04:34:14.355Z,3.00
2022-09-17T04:36:41.841Z,2.90
2022-09-17T04:39:09.550Z,2.85
2022-09-17T04:41:37.288Z,2.60
2022-09-17T04:44:04.969Z,3.00
2022-09-17T04:46:32.575Z,2.78
2022-09-17T04:49:00.506Z,2.70
2022-09-17T04:51:28.058Z,2.70
2022-09-17T04:53:55.828Z,2.67
2022-09-17T04:56:23.538Z,2.60
2022-09-17T04:58:51.259Z,2.50
2022-09-17T05:01:19.039Z,2.88
2022-09-17T05:03:46.934Z,2.70
2022-09-17T05:06:14.671Z,2.45
2022-09-17T05:08:42.493Z,2.42
2022-09-17T05:11:10.155Z,2.47
2022-09-17T05:13:37.654Z,2.63
2022-09-17T05:16:05.652Z,2.47
2022-09-17T05:18:33.259Z,2.70
2022-09-17T05:21:00.888Z,2.70
2022-09-17T05:23:28.497Z,2.60
2022-09-17T05:26:00.510Z,2.60
2022-09-17T05:28:28.880Z,2.53
2022-09-17T05:31:00.083Z,2.47
2022-09-17T05:33:28.370Z,2.63
2022-09-17T05:35:56.475Z,2.50
2022-09-17T05:38:24.428Z,2.45
2022-09-17T05:40:52.127Z,2.33
2022-09-17T05:43:19.802Z,2.22
2022-09-17T05:45:47.680Z,2.40
2022-09-17T05:48:16.064Z,2.13
2022-09-17T05:50:43.856Z,2.30
2022-09-17T05:53:12.995Z,2.40
2022-09-17T05:55:40.768Z,2.15
2022-09-17T05:58:16.668Z,2.45
2022-09-17T06:00:48.091Z,2.07
2022-09-17T06:03:18.225Z,2.40
2022-09-17T06:05:58.272Z,2.15
2022-09-17T06:08:27.793Z,2.20
2022-09-17T06:11:00.170Z,2.08
2022-09-17T06:13:29.933Z,2.30
2022-09-17T06:15:57.596Z,2.38
2022-09-17T06:18:25.275Z,2.20
2022-09-17T06:20:57.509Z,2.55
2022-09-17T06:23:26.313Z,2.40
2022-09-17T06:25:57.134Z,2.63
2022-09-17T06:28:26.598Z,2.47
2022-09-17T06:30:56.831Z,2.22
2022-09-17T06:33:25.155Z,2.38
2022-09-17T06:36:12.460Z,2.25
2022-09-17T06:38:41.510Z,2.90
2022-09-17T06:41:09.612Z,3.05
2022-09-17T06:43:37.444Z,4.97
2022-09-17T06:46:06.302Z,5.10
2022-09-17T06:48:35.621Z,4.00
2022-09-17T06:51:10.593Z,3.40
2022-09-17T06:53:39.444Z,3.38
2022-09-17T06:56:08.685Z,2.70
2022-09-17T06:58:37.591Z,4.40
2022-09-17T07:01:06.319Z,6.68
2022-09-17T07:03:34.585Z,8.15
2022-09-17T07:06:02.361Z,7.22
2022-09-17T07:08:34.650Z,5.45
2022-09-17T07:11:02.445Z,4.97
2022-09-17T07:13:30.226Z,4.03
2022-09-17T07:16:00.531Z,4.03
2022-09-17T07:18:28.955Z,3.80
2022-09-17T07:20:59.194Z,4.00
2022-09-17T07:23:29.431Z,2.95
2022-09-17T07:25:59.538Z,3.45
2022-09-17T07:28:28.951Z,2.85
2022-09-17T07:30:57.019Z,3.20
2022-09-17T07:33:27.804Z,3.60
2022-09-17T07:35:56.036Z,3.15
2022-09-17T07:38:24.999Z,3.00
2022-09-17T07:40:59.916Z,3.13
2022-09-17T07:43:29.558Z,2.92
2022-09-17T07:45:58.715Z,3.15
2022-09-17T07:48:27.477Z,3.17
2022-09-17T07:50:55.550Z,3.25
2022-09-17T07:53:23.778Z,3.50
2022-09-17T07:55:59.586Z,3.53
2022-09-17T07:58:33.679Z,3.50
2022-09-17T08:01:07.261Z,3.20
2022-09-17T08:03:36.274Z,3.03
2022-09-17T08:06:06.272Z,3.50
2022-09-17T08:08:36.068Z,3.25
2022-09-17T08:11:14.433Z,3.00
2022-09-17T08:13:42.479Z,2.78
2022-09-17T08:16:15.528Z,3.47
2022-09-17T08:18:44.755Z,3.10
2022-09-17T08:21:14.792Z,3.03
2022-09-17T08:23:44.263Z,2.95
2022-09-17T08:26:16.248Z,2.70
2022-09-17T08:28:48.794Z,3.58
2022-09-17T08:31:18.854Z,2.85
2022-09-17T08:33:48.111Z,3.15
2022-09-17T08:36:18.719Z,2.88
2022-09-17T08:38:46.485Z,2.95
2022-09-17T08:41:37.104Z,2.70
2022-09-17T08:44:04.935Z,2.65
2022-09-17T08:46:50.864Z,3.10
2022-09-17T08:49:36.813Z,2.78
2022-09-17T08:52:22.406Z,2.85
2022-09-17T08:55:24.094Z,2.95
2022-09-17T08:58:00.742Z,3.00
2022-09-17T09:00:46.420Z,2.75
2022-09-17T09:03:17.242Z,3.10
2022-09-17T09:05:47.894Z,2.90
2022-09-17T09:08:38.326Z,2.72
2022-09-17T09:11:27.982Z,2.72
2022-09-17T09:14:27.379Z,2.72
2022-09-17T09:16:56.677Z,2.90
2022-09-17T09:19:32.395Z,3.03
2022-09-17T09:22:18.330Z,2.50
2022-09-17T09:25:00.324Z,2.90
2022-09-17T09:27:32.971Z,3.20
2022-09-17T09:30:30.998Z,2.70
2022-09-17T09:33:15.144Z,3.15
2022-09-17T09:35:44.494Z,2.90
2022-09-17T09:38:41.048Z,4.95
2022-09-17T09:41:20.482Z,2.67
2022-09-17T09:44:12.688Z,2.50
2022-09-17T09:46:43.616Z,2.65
2022-09-17T09:49:35.080Z,2.78
2022-09-17T09:52:20.316Z,4.18
2022-09-17T09:55:18.261Z,3.25
2022-09-17T09:57:52.393Z,2.97
2022-09-17T10:00:30.784Z,2.70
2022-09-17T10:03:11.009Z,3.00
2022-09-17T10:05:39.105Z,3.00
2022-09-17T10:08:14.837Z,3.03
2022-09-17T10:10:59.428Z,3.42
2022-09-17T10:13:37.725Z,3.17
2022-09-17T10:16:22.324Z,3.80
2022-09-17T10:19:11.010Z,3.33
2022-09-17T10:21:41.185Z,3.38
2022-09-17T10:24:29.481Z,3.35
2022-09-17T10:27:07.661Z,4.15
2022-09-17T10:29:35.446Z,3.78
2022-09-17T10:32:07.033Z,3.58
2022-09-17T10:34:35.086Z,3.17
2022-09-17T10:37:02.874Z,3.75
2022-09-17T10:39:38.182Z,4.55
2022-09-17T10:42:19.064Z,4.38
2022-09-17T10:45:01.032Z,4.50
2022-09-17T10:47:31.315Z,6.80
2022-09-17T10:50:05.820Z,5.63
2022-09-17T10:52:39.302Z,7.72
2022-09-17T10:55:31.285Z,4.82
2022-09-17T10:58:08.474Z,10.07
2022-09-17T11:00:52.460Z,6.65
2022-09-17T11:03:41.607Z,7.03
2022-09-17T11:06:28.201Z,5.53
2022-09-17T11:09:06.501Z,5.93
2022-09-17T11:11:37.207Z,7.15
2022-09-17T11:14:43.797Z,7.57
2022-09-17T11:18:13.160Z,7.80
2022-09-17T11:23:55.957Z,9.50
2022-09-17T11:27:06.776Z,6.97
2022-09-17T11:29:57.194Z,5.47
2022-09-17T11:32:49.720Z,4.95
2022-09-17T11:35:23.085Z,4.43
2022-09-17T11:38:02.630Z,4.18
2022-09-17T11:40:52.738Z,3.95
2022-09-17T11:43:36.186Z,4.82
2022-09-17T11:46:10.860Z,4.13
2022-09-17T11:48:42.545Z,4.22
2022-09-17T11:51:23.613Z,3.88
2022-09-17T11:53:57.709Z,4.20
2022-09-17T11:56:45.048Z,4.60
2022-09-17T12:02:02.648Z,4.70
2022-09-17T12:04:41.406Z,4.93
2022-09-17T12:07:31.895Z,5.05
2022-09-17T12:10:08.968Z,5.15
2022-09-17T12:12:50.546Z,4.50
2022-09-17T12:15:23.014Z,4.75
2022-09-17T12:18:14.253Z,5.03
2022-09-17T12:20:48.054Z,3.38
2022-09-17T12:23:22.202Z,3.33
2022-09-17T12:26:00.948Z,3.17
2022-09-17T12:29:05.847Z,3.00
2022-09-17T12:31:50.888Z,4.03
2022-09-17T12:34:54.079Z,4.28
2022-09-17T12:38:00.382Z,4.72
2022-09-17T12:40:47.415Z,4.00
2022-09-17T12:46:04.627Z,3.70
2022-09-17T12:48:35.184Z,3.97
2022-09-17T12:51:19.951Z,4.30
2022-09-17T12:54:21.799Z,8.35
2022-09-17T12:57:01.618Z,14.15
2022-09-17T12:59:33.274Z,13.85
2022-09-17T13:02:24.367Z,11.85
2022-09-17T13:05:16.761Z,7.53
2022-09-17T13:08:03.263Z,5.03
2022-09-17T13:10:34.223Z,4.70
2022-09-17T13:13:01.940Z,3.50
2022-09-17T13:15:35.808Z,3.22
2022-09-17T13:18:26.211Z,2.80
2022-09-17T13:21:04.048Z,3.35
2022-09-17T13:23:36.026Z,3.65
2022-09-17T13:26:06.190Z,4.68
2022-09-17T13:28:52.871Z,13.55
2022-09-17T13:31:42.850Z,9.63
2022-09-17T13:34:31.741Z,6.15
2022-09-17T13:37:04.815Z,4.38
2022-09-17T13:39:48.302Z,3.53
2022-09-17T13:42:28.144Z,3.20
2022-09-17T13:45:13.260Z,2.53
2022-09-17T13:48:16.763Z,2.60
2022-09-17T13:50:44.974Z,3.13
2022-09-17T13:53:12.568Z,2.85
2022-09-17T13:55:51.820Z,2.60
2022-09-17T13:58:19.431Z,2.50
2022-09-17T14:00:57.762Z,2.70
2022-09-17T14:03:33.881Z,2.20
2022-09-17T14:06:08.821Z,2.08
2022-09-17T14:08:46.731Z,2.22
2022-09-17T14:11:27.856Z,2.53
2022-09-17T14:13:56.302Z,2.10
2022-09-17T14:16:37.365Z,2.03
2022-09-17T14:19:27.157Z,2.40
2022-09-17T14:21:57.630Z,2.33
2022-09-17T14:24:34.376Z,2.13
2022-09-17T14:30:07.924Z,2.67
2022-09-17T14:33:13.388Z,2.53
2022-09-17T14:35:50.388Z,2.30
2022-09-17T14:38:53.553Z,1.90
2022-09-17T14:41:30.012Z,2.03
2022-09-17T14:44:09.170Z,2.00
2022-09-17T14:46:43.360Z,1.90
2022-09-17T14:49:23.015Z,1.92
2022-09-17T14:54:33.642Z,2.50
2022-09-17T14:57:09.793Z,2.25
2022-09-17T14:59:46.433Z,2.03
2022-09-17T15:02:43.561Z,2.20
2022-09-17T15:05:33.856Z,2.10
2022-09-17T15:08:23.426Z,2.25
2022-09-17T15:10:58.904Z,2.55
2022-09-17T15:13:51.162Z,2.05
2022-09-17T15:16:30.809Z,2.22
2022-09-17T15:19:01.827Z,2.42
2022-09-17T15:21:44.154Z,2.50
2022-09-17T15:24:44.842Z,2.47
2022-09-17T15:27:14.621Z,2.30
2022-09-17T15:29:47.988Z,2.67
2022-09-17T15:32:15.963Z,2.60
2022-09-17T15:34:43.686Z,2.50
2022-09-17T15:37:25.207Z,2.42
2022-09-17T15:39:55.692Z,2.20
2022-09-17T15:42:29.679Z,2.00
2022-09-17T15:45:09.240Z,2.55
2022-09-17T15:47:52.107Z,2.40
2022-09-17T15:50:26.124Z,2.63
2022-09-17T15:53:09.163Z,2.13
2022-09-17T15:55:58.688Z,2.40
2022-09-17T15:58:30.003Z,2.47
2022-09-17T16:01:16.212Z,2.40
2022-09-17T16:03:44.493Z,1.97
2022-09-17T16:06:21.161Z,2.60
2022-09-17T16:11:17.530Z,1.98
2022-09-17T16:13:49.613Z,2.00
2022-09-17T16:16:23.834Z,2.00
2022-09-17T16:18:51.678Z,1.95
2022-09-17T16:21:20.876Z,1.98
2022-09-17T16:23:48.496Z,2.28
2022-09-17T16:26:19.877Z,2.22
2022-09-17T16:28:50.341Z,2.60
2022-09-17T16:31:18.319Z,2.40
2022-09-17T16:33:45.999Z,2.38
2022-09-17T16:36:17.093Z,2.25
2022-09-17T16:38:44.826Z,2.25
2022-09-17T16:41:12.728Z,1.90
2022-09-17T16:43:40.518Z,2.38
2022-09-17T16:46:11.185Z,2.40
2022-09-17T16:48:39.084Z,2.03
2022-09-17T16:51:14.271Z,2.40
2022-09-17T16:53:42.144Z,2.83
2022-09-17T16:56:11.558Z,3.50
2022-09-17T16:58:40.535Z,3.75
2022-09-17T17:01:13.226Z,3.50
2022-09-17T17:03:41.488Z,3.13
2022-09-17T17:06:16.869Z,3.08
2022-09-17T17:08:44.794Z,2.67
2022-09-17T17:11:12.925Z,3.38
2022-09-17T17:13:43.133Z,3.03
2022-09-17T17:16:14.078Z,3.35
2022-09-17T17:18:44.000Z,3.15
2022-09-17T17:21:14.486Z,3.05
2022-09-17T17:23:47.817Z,2.85
2022-09-17T17:26:19.394Z,2.75
2022-09-17T17:28:49.967Z,2.60
2022-09-17T17:31:18.221Z,2.35
2022-09-17T17:33:46.172Z,3.55
2022-09-17T17:36:14.108Z,5.65
2022-09-17T17:38:41.923Z,5.28
2022-09-17T17:41:14.404Z,3.75
2022-09-17T17:43:42.467Z,2.83
2022-09-17T17:46:11.731Z,2.58
2022-09-17T17:48:39.669Z,2.78
2022-09-17T17:51:09.573Z,2.90
2022-09-17T17:53:37.470Z,2.80
2022-09-17T17:56:09.420Z,2.20
2022-09-17T17:58:37.652Z,2.45
2022-09-17T18:01:15.269Z,2.00
2022-09-17T18:03:43.703Z,2.15
2022-09-17T18:06:11.631Z,2.00
2022-09-17T18:08:41.361Z,2.22
2022-09-17T18:11:10.388Z,2.75
2022-09-17T18:13:39.480Z,2.30
2022-09-17T18:16:09.217Z,2.53
2022-09-17T18:18:44.984Z,2.85
2022-09-17T18:21:16.443Z,2.90
2022-09-17T18:23:44.794Z,2.10
2022-09-17T18:26:17.955Z,2.00
2022-09-17T18:28:46.213Z,1.92
2022-09-17T18:31:44.816Z,2.20
2022-09-17T18:34:14.957Z,1.90
2022-09-17T18:36:47.586Z,2.20
2022-09-17T18:42:09.239Z,2.70
2022-09-17T18:44:36.868Z,2.30
2022-09-17T18:47:04.564Z,2.55
2022-09-17T18:49:32.530Z,2.08
2022-09-17T18:52:02.943Z,2.75
2022-09-17T18:54:30.703Z,2.58
2022-09-17T18:56:58.345Z,2.42
2022-09-17T18:59:26.012Z,4.38
2022-09-17T19:01:53.884Z,6.47
2022-09-17T19:04:21.733Z,5.88
2022-09-17T19:06:49.474Z,4.13
2022-09-17T19:09:17.181Z,2.80
2022-09-17T19:11:44.918Z,2.30
2022-09-17T19:14:12.658Z,2.33
2022-09-17T19:16:40.161Z,1.67
2022-09-17T19:19:07.860Z,2.30
2022-09-17T19:21:35.539Z,2.10
2022-09-17T19:24:03.795Z,2.10
2022-09-17T19:26:31.482Z,1.80
2022-09-17T19:29:00.538Z,2.15
2022-09-17T19:31:28.668Z,1.80
2022-09-17T19:33:58.559Z,2.33
2022-09-17T19:36:26.966Z,2.13
2022-09-17T19:38:55.157Z,1.80
2022-09-17T19:41:26.323Z,1.80
2022-09-17T19:43:55.216Z,1.77
2022-09-17T19:46:25.301Z,2.15
2022-09-17T19:48:55.400Z,2.75
2022-09-17T19:51:25.061Z,2.58
2022-09-17T19:53:53.286Z,2.28
2022-09-17T19:56:23.304Z,2.03
2022-09-17T19:58:51.619Z,1.98
2022-09-17T20:01:19.856Z,1.70
2022-09-17T20:03:51.157Z,1.92
2022-09-17T20:06:21.049Z,1.60
2022-09-17T20:08:51.315Z,1.60
2022-09-17T20:11:20.496Z,2.20
2022-09-17T20:13:48.721Z,2.22
2022-09-17T20:16:21.895Z,8.68
2022-09-17T20:18:50.400Z,11.52
2022-09-17T20:21:24.588Z,7.50
2022-09-17T20:23:54.702Z,4.35
2022-09-17T20:26:23.076Z,3.50
2022-09-17T20:28:52.094Z,3.13
2022-09-17T20:31:25.273Z,4.55
2022-09-17T20:34:01.136Z,4.18
2022-09-17T20:36:31.543Z,2.73
2022-09-17T20:39:12.336Z,2.60
2022-09-17T20:41:43.166Z,1.80
2022-09-17T20:44:11.260Z,2.20
2022-09-17T20:46:39.213Z,2.30
2022-09-17T20:49:07.020Z,2.42
2022-09-17T20:51:35.271Z,2.10
2022-09-17T20:54:03.030Z,1.92
2022-09-17T20:56:33.385Z,1.90
2022-09-17T20:59:13.602Z,1.77
2022-09-17T21:01:45.202Z,2.08
2022-09-17T21:04:19.710Z,2.03
2022-09-17T21:06:51.792Z,1.90
2022-09-17T21:09:20.159Z,1.77
2022-09-17T21:11:49.345Z,1.95
2022-09-17T21:14:18.339Z,1.73
2022-09-17T21:16:46.751Z,1.80
2022-09-17T21:19:16.351Z,1.80
2022-09-17T21:21:44.698Z,1.67
2022-09-17T21:24:12.470Z,1.88
2022-09-17T21:26:40.447Z,1.70
2022-09-17T21:29:08.153Z,1.55
2022-09-17T21:31:37.532Z,1.70
2022-09-17T21:34:12.317Z,1.80
2022-09-17T21:36:41.575Z,1.75
2022-09-17T21:39:15.211Z,1.45
2022-09-17T21:41:44.381Z,1.77
2022-09-17T21:44:12.837Z,1.80
2022-09-17T21:46:42.507Z,1.50
2022-09-17T21:49:11.454Z,1.75
2022-09-17T21:51:41.420Z,1.77
2022-09-17T21:54:15.468Z,1.50
2022-09-17T21:56:44.216Z,1.95
2022-09-17T21:59:14.162Z,1.90
2022-09-17T22:01:47.683Z,1.60
2022-09-17T22:04:18.865Z,1.98
2022-09-17T22:06:48.454Z,1.80
2022-09-17T22:09:19.282Z,1.98
2022-09-17T22:11:47.447Z,2.00
2022-09-17T22:14:21.333Z,2.10
2022-09-17T22:16:54.633Z,1.80
2022-09-17T22:19:23.911Z,1.55
2022-09-17T22:21:54.163Z,2.17
2022-09-17T22:24:22.795Z,1.40
2022-09-17T22:26:57.353Z,1.88
2022-09-17T22:29:27.011Z,1.65
2022-09-17T22:31:54.790Z,1.88
2022-09-17T22:34:23.828Z,1.90
2022-09-17T22:36:51.473Z,1.88
2022-09-17T22:39:22.669Z,1.73
2022-09-17T22:41:50.726Z,1.90
2022-09-17T22:44:19.740Z,1.52
2022-09-17T22:46:49.849Z,1.30
2022-09-17T22:49:18.673Z,1.60
2022-09-17T22:51:49.296Z,1.40
2022-09-17T22:54:18.495Z,1.10
2022-09-17T22:56:47.811Z,1.10
2022-09-17T22:59:15.940Z,1.00
2022-09-17T23:01:43.759Z,1.13
2022-09-17T23:04:11.550Z,1.08
2022-09-17T23:06:42.350Z,1.15
2022-09-17T23:09:12.756Z,1.40
2022-09-17T23:11:40.780Z,1.50
2022-09-17T23:14:12.120Z,1.98
2022-09-17T23:16:45.789Z,1.73
2022-09-17T23:19:15.585Z,1.73
2022-09-17T23:21:43.732Z,1.33
2022-09-17T23:24:18.379Z,1.40
2022-09-17T23:26:46.619Z,1.42
2022-09-17T23:29:14.570Z,1.40
2022-09-17T23:31:42.428Z,1.48
2022-09-17T23:34:10.511Z,1.25
2022-09-17T23:36:39.943Z,1.17
2022-09-17T23:39:10.831Z,1.05
2022-09-17T23:41:43.264Z,1.25
2022-09-17T23:44:15.623Z,1.30
2022-09-17T23:46:45.424Z,1.00
2022-09-17T23:49:14.448Z,1.23
2022-09-17T23:51:42.656Z,0.90
2022-09-17T23:54:10.865Z,1.00
2022-09-17T23:56:38.467Z,0.98
2022-09-17T23:59:07.536Z,1.23
